Time;durP1;ratioP1;P1;durP2;ratioP2;P2;SDS_P1;SDS_P2;PMS_P1;PMS_P2;Temp;Humidity;BMP_temperature;BMP_pressure;BME280_temperature;BME280_humidity;BME280_pressure;Samples;Min_cycle;Max_cycle;Signal;HPM_P1;HPM_P2
2023/09/27 05:53:46;;;;;;;6.15;4.35;;;;;;;;;;10675228;27;20033;-87
2023/09/27 05:59:12;;;;;;;10.80;4.20;;;;;;;;;;10684111;22;20043;-87
2023/09/27 06:04:39;;;;;;;9.13;5.45;;;;;;;;;;10542619;28;20028;-88
2023/09/27 06:09:44;;;;;;;5.82;4.07;;;;;;;;;;10540790;28;20052;-87
2023/09/27 06:14:45;;;;;;;7.47;3.92;;;;;;;;;;10558442;28;20024;-86
2023/09/27 06:19:48;;;;;;;7.30;3.85;;;;;;;;;;10571855;28;20073;-87
2023/09/27 06:24:49;;;;;;;10.10;5.25;;;;;;;;;;10557252;28;20032;-88
2023/09/27 06:29:51;;;;;;;9.75;5.22;;;;;;;;;;10563859;28;20028;-88
2023/09/27 06:34:52;;;;;;;7.32;4.55;;;;;;;;;;10586667;28;20036;-87
2023/09/27 06:39:53;;;;;;;9.20;5.20;;;;;;;;;;10580213;28;20499;-87
2023/09/27 06:44:58;;;;;;;8.00;4.25;;;;;;;;;;10564545;28;20082;-87
2023/09/27 06:49:59;;;;;;;7.75;4.82;;;;;;;;;;10558101;28;20025;-88
2023/09/27 06:55:02;;;;;;;7.13;5.57;;;;;;;;;;10550071;28;20020;-88
2023/09/27 07:00:08;;;;;;;7.10;4.97;;;;;;;;;;10526178;28;20092;-88
2023/09/27 07:05:50;;;;;;;8.73;4.88;;;;;;;;;;10510503;28;20114;-89
2023/09/27 07:11:11;;;;;;;7.68;5.20;;;;;;;;;;10552812;28;20028;-85
2023/09/27 07:16:26;;;;;;;9.38;4.90;;;;;;;;;;10548738;28;20020;-85
2023/09/27 07:21:27;;;;;;;7.32;4.18;;;;;;;;;;10557287;28;20016;-83
2023/09/27 07:26:32;;;;;;;7.10;4.18;;;;;;;;;;10568140;28;20031;-83
2023/09/27 07:31:35;;;;;;;8.93;4.55;;;;;;;;;;10553351;28;20035;-83
2023/09/27 07:36:36;;;;;;;6.35;4.53;;;;;;;;;;10553579;28;20023;-84
2023/09/27 07:41:38;;;;;;;11.43;5.18;;;;;;;;;;10553631;28;20096;-84
2023/09/27 07:46:40;;;;;;;8.98;4.78;;;;;;;;;;10551244;28;20028;-84
2023/09/27 07:51:41;;;;;;;7.03;5.18;;;;;;;;;;10551447;28;20020;-84
2023/09/27 07:56:43;;;;;;;8.82;5.80;;;;;;;;;;10551283;28;20028;-84
2023/09/27 08:01:44;;;;;;;8.40;5.13;;;;;;;;;;10552538;28;20042;-84
2023/09/27 08:06:46;;;;;;;9.85;5.20;;;;;;;;;;10550476;28;20130;-84
2023/09/27 08:11:47;;;;;;;7.93;4.90;;;;;;;;;;10550786;28;20040;-84
2023/09/27 08:16:48;;;;;;;7.80;4.75;;;;;;;;;;10550910;28;20028;-84
2023/09/27 08:21:49;;;;;;;10.55;5.10;;;;;;;;;;10564977;28;20044;-84
2023/09/27 08:26:50;;;;;;;6.07;4.75;;;;;;;;;;10538574;28;20052;-85
2023/09/27 08:31:51;;;;;;;8.20;4.60;;;;;;;;;;10537695;28;20472;-86
2023/09/27 08:36:52;;;;;;;5.88;4.50;;;;;;;;;;10557524;28;20048;-85
2023/09/27 08:41:55;;;;;;;6.63;4.43;;;;;;;;;;10542701;28;20092;-86
2023/09/27 08:46:56;;;;;;;11.40;8.93;;;;;;;;;;10541314;28;20024;-86
2023/09/27 08:51:57;;;;;;;6.30;4.72;;;;;;;;;;10542715;28;20032;-85
2023/09/27 08:56:59;;;;;;;5.63;4.57;;;;;;;;;;10540527;28;20040;-83
2023/09/27 09:02:01;;;;;;;6.95;4.50;;;;;;;;;;10541662;28;20126;-84
2023/09/27 09:07:03;;;;;;;6.70;5.13;;;;;;;;;;10541043;28;20032;-84
2023/09/27 09:12:08;;;;;;;8.68;5.30;;;;;;;;;;10542303;28;20031;-84
2023/09/27 09:17:17;;;;;;;7.45;4.25;;;;;;;;;;10541066;28;20020;-84
2023/09/27 09:22:18;;;;;;;6.57;4.97;;;;;;;;;;10539693;28;20024;-84
2023/09/27 09:27:20;;;;;;;9.80;4.80;;;;;;;;;;10539298;28;20052;-84
2023/09/27 09:32:21;;;;;;;6.30;4.68;;;;;;;;;;10543487;28;20502;-86
2023/09/27 09:37:23;;;;;;;6.75;4.45;;;;;;;;;;10558287;28;20506;-86
2023/09/27 09:42:31;;;;;;;5.85;4.32;;;;;;;;;;10542437;28;20035;-86
2023/09/27 09:48:01;;;;;;;6.70;4.47;;;;;;;;;;10534675;28;20024;-85
2023/09/27 09:53:12;;;;;;;6.20;4.07;;;;;;;;;;10550862;28;20452;-86
2023/09/27 09:58:29;;;;;;;5.85;4.53;;;;;;;;;;10548699;28;20078;-85
2023/09/27 10:03:39;;;;;;;7.90;3.50;;;;;;;;;;10537613;28;20087;-86
2023/09/27 10:08:43;;;;;;;7.13;4.15;;;;;;;;;;10557577;28;20052;-86
2023/09/27 10:13:45;;;;;;;6.15;3.83;;;;;;;;;;10566086;28;20047;-87
2023/09/27 10:18:47;;;;;;;8.65;5.28;;;;;;;;;;10547830;28;20024;-86
2023/09/27 10:23:49;;;;;;;9.23;4.70;;;;;;;;;;10548152;28;20099;-86
2023/09/27 10:29:15;;;;;;;8.75;4.07;;;;;;;;;;10539905;28;20480;-85
2023/09/27 10:34:25;;;;;;;4.05;3.45;;;;;;;;;;10539000;28;20024;-86
2023/09/27 10:39:26;;;;;;;6.65;5.30;;;;;;;;;;10537758;28;20445;-86
2023/09/27 10:44:29;;;;;;;8.50;4.32;;;;;;;;;;10543896;28;20024;-85
2023/09/27 10:49:38;;;;;;;7.05;4.07;;;;;;;;;;10545345;28;20024;-85
2023/09/27 10:54:39;;;;;;;7.80;6.07;;;;;;;;;;10570324;28;20051;-85
2023/09/27 10:59:43;;;;;;;5.20;3.80;;;;;;;;;;10552444;28;20040;-84
2023/09/27 11:04:55;;;;;;;5.65;3.97;;;;;;;;;;10559008;28;20024;-83
2023/09/27 11:09:56;;;;;;;8.65;3.72;;;;;;;;;;10541356;28;20020;-84
2023/09/27 11:14:57;;;;;;;7.25;4.13;;;;;;;;;;10540739;28;20431;-85
2023/09/27 11:20:10;;;;;;;7.97;3.75;;;;;;;;;;10540912;28;20054;-85
2023/09/27 11:25:27;;;;;;;6.88;3.80;;;;;;;;;;10540956;28;20034;-85
2023/09/27 11:30:32;;;;;;;5.65;3.95;;;;;;;;;;10547759;28;20031;-85
2023/09/27 11:35:33;;;;;;;5.47;3.75;;;;;;;;;;10553077;28;20021;-86
2023/09/27 11:40:34;;;;;;;4.55;3.03;;;;;;;;;;10547808;28;20035;-85
2023/09/27 11:45:42;;;;;;;10.38;7.93;;;;;;;;;;10542808;28;20118;-85
2023/09/27 11:50:43;;;;;;;5.28;4.25;;;;;;;;;;10549267;28;20091;-85
2023/09/27 12:00:48;;;;;;;9.10;4.22;;;;;;;;;;10584015;28;20048;-79
2023/09/27 12:05:49;;;;;;;7.63;5.13;;;;;;;;;;10592406;28;20039;-79
2023/09/27 12:10:50;;;;;;;6.10;3.90;;;;;;;;;;10573030;28;20411;-79
2023/09/27 12:15:51;;;;;;;7.50;3.97;;;;;;;;;;10573752;28;20110;-79
2023/09/27 12:20:52;;;;;;;9.80;4.38;;;;;;;;;;10571664;28;20020;-79
2023/09/27 12:25:53;;;;;;;7.65;4.22;;;;;;;;;;10571277;28;20019;-78
2023/09/27 12:30:54;;;;;;;7.82;4.70;;;;;;;;;;10572946;28;20023;-79
2023/09/27 12:35:56;;;;;;;4.93;3.67;;;;;;;;;;10571832;28;20034;-81
2023/09/27 12:40:57;;;;;;;5.88;4.18;;;;;;;;;;10569690;28;20034;-78
2023/09/27 12:45:58;;;;;;;5.55;4.22;;;;;;;;;;10581928;28;20383;-79
2023/09/27 12:50:59;;;;;;;5.72;4.20;;;;;;;;;;10572987;28;20047;-79
2023/09/27 12:56:00;;;;;;;6.78;4.40;;;;;;;;;;10575320;28;20027;-81
2023/09/27 13:01:01;;;;;;;8.68;4.20;;;;;;;;;;10580360;28;20028;-82
2023/09/27 13:06:02;;;;;;;6.20;4.90;;;;;;;;;;10579133;28;20046;-82
2023/09/27 13:11:08;;;;;;;7.70;4.40;;;;;;;;;;10585725;28;20077;-81
2023/09/27 13:16:09;;;;;;;6.22;4.25;;;;;;;;;;10608595;28;20164;-82
2023/09/27 13:21:10;;;;;;;5.10;3.63;;;;;;;;;;10591673;28;20024;-82
2023/09/27 13:26:11;;;;;;;5.40;4.63;;;;;;;;;;10584087;27;20043;-82
2023/09/27 13:31:12;;;;;;;7.50;4.45;;;;;;;;;;10594146;28;20032;-83
2023/09/27 13:36:13;;;;;;;10.38;4.65;;;;;;;;;;10574649;28;20165;-83
2023/09/27 13:41:15;;;;;;;10.65;5.63;;;;;;;;;;10573342;28;20131;-83
2023/09/27 13:46:16;;;;;;;8.07;4.75;;;;;;;;;;10573149;28;20034;-83
2023/09/27 13:51:17;;;;;;;9.07;6.60;;;;;;;;;;10571394;28;20078;-81
2023/09/27 13:56:18;;;;;;;11.18;5.55;;;;;;;;;;10579957;28;20109;-81
2023/09/27 14:01:19;;;;;;;6.82;4.68;;;;;;;;;;10587367;28;20023;-81
2023/09/27 14:06:20;;;;;;;7.65;4.68;;;;;;;;;;10587731;28;20097;-81
2023/09/27 14:11:22;;;;;;;11.85;5.50;;;;;;;;;;10621091;28;20020;-83
2023/09/27 14:16:23;;;;;;;7.95;5.32;;;;;;;;;;10587706;28;20034;-82
2023/09/27 14:21:24;;;;;;;6.82;5.78;;;;;;;;;;10587216;28;20028;-82
2023/09/27 14:26:25;;;;;;;22.92;7.07;;;;;;;;;;10584703;28;20074;-82
2023/09/27 14:31:28;;;;;;;17.75;6.13;;;;;;;;;;10584828;28;20020;-81
2023/09/27 14:36:29;;;;;;;10.20;6.00;;;;;;;;;;10603371;28;20050;-82
2023/09/27 14:41:31;;;;;;;7.53;5.68;;;;;;;;;;10588114;28;20043;-82
2023/09/27 14:46:33;;;;;;;10.63;6.57;;;;;;;;;;10583413;28;20023;-82
2023/09/27 14:51:34;;;;;;;5.15;4.55;;;;;;;;;;10581190;28;20020;-82
2023/09/27 14:56:35;;;;;;;5.03;3.67;;;;;;;;;;10580901;28;20043;-83
2023/09/27 15:01:36;;;;;;;8.57;5.85;;;;;;;;;;10579428;28;20050;-82
2023/09/27 15:06:37;;;;;;;5.78;2.80;;;;;;;;;;10578422;28;20034;-82
2023/09/27 15:11:38;;;;;;;4.28;2.67;;;;;;;;;;10587258;28;20016;-81
2023/09/27 15:16:39;;;;;;;4.22;2.60;;;;;;;;;;10605594;28;20023;-81
2023/09/27 15:21:41;;;;;;;9.52;6.93;;;;;;;;;;10607649;28;20028;-82
2023/09/27 15:26:42;;;;;;;5.30;3.53;;;;;;;;;;10603258;28;20519;-83
2023/09/27 15:31:43;;;;;;;3.05;2.22;;;;;;;;;;10582758;28;20027;-82
2023/09/27 15:36:44;;;;;;;10.15;9.15;;;;;;;;;;10601152;28;20387;-82
2023/09/27 15:41:45;;;;;;;5.22;2.90;;;;;;;;;;10600131;28;20026;-82
2023/09/27 15:46:49;;;;;;;5.63;4.97;;;;;;;;;;10579756;28;20027;-83
2023/09/27 15:51:50;;;;;;;4.47;3.10;;;;;;;;;;10600647;28;20016;-83
2023/09/27 15:56:51;;;;;;;5.25;2.80;;;;;;;;;;10580764;28;20098;-83
2023/09/27 16:01:52;;;;;;;3.13;2.50;;;;;;;;;;10581476;28;20036;-83
2023/09/27 16:06:53;;;;;;;4.15;2.78;;;;;;;;;;10595765;28;20094;-79
2023/09/27 16:11:55;;;;;;;5.65;3.10;;;;;;;;;;10596051;28;20045;-80
2023/09/27 16:16:56;;;;;;;3.65;3.08;;;;;;;;;;10597851;28;20031;-78
2023/09/27 16:21:57;;;;;;;5.35;4.32;;;;;;;;;;10604499;28;20015;-83
2023/09/27 16:27:00;;;;;;;4.93;3.60;;;;;;;;;;10585259;28;20027;-85
2023/09/27 16:32:21;;;;;;;3.80;3.05;;;;;;;;;;10610362;27;20015;-88
2023/09/27 16:43:03;;;;;;;3.40;2.70;;;;;;;;;;10632357;27;20035;-89
2023/09/27 16:59:22;;;;;;;12.93;9.27;;;;;;;;;;10585595;28;20035;-86
2023/09/27 17:04:47;;;;;;;7.55;6.35;;;;;;;;;;10505795;28;20037;-85
2023/09/27 17:09:57;;;;;;;7.10;3.90;;;;;;;;;;10510909;28;20488;-85
2023/09/27 17:14:59;;;;;;;5.05;3.35;;;;;;;;;;10492576;28;20048;-85
2023/09/27 17:20:02;;;;;;;3.47;3.10;;;;;;;;;;10565908;28;20043;-86
2023/09/27 17:25:03;;;;;;;5.88;3.20;;;;;;;;;;10592623;28;20395;-85
2023/09/27 17:30:05;;;;;;;3.55;2.60;;;;;;;;;;10575139;28;20020;-86
2023/09/27 17:35:07;;;;;;;4.95;3.75;;;;;;;;;;10573084;28;20492;-86
2023/09/27 17:40:08;;;;;;;4.03;3.58;;;;;;;;;;10572320;28;20027;-86
2023/09/27 17:45:10;;;;;;;8.60;5.50;;;;;;;;;;10594152;28;20107;-86
2023/09/27 17:50:11;;;;;;;5.95;4.35;;;;;;;;;;10566604;28;20114;-88
2023/09/27 17:55:14;;;;;;;4.38;3.20;;;;;;;;;;10595994;28;20028;-88
2023/09/27 18:00:15;;;;;;;6.20;4.82;;;;;;;;;;10561810;22;20411;-87
2023/09/27 18:05:23;;;;;;;6.85;3.80;;;;;;;;;;10552770;28;20111;-87
2023/09/27 18:10:29;;;;;;;4.78;3.42;;;;;;;;;;10584311;28;20450;-87
2023/09/27 18:15:31;;;;;;;4.53;4.03;;;;;;;;;;10587527;28;20032;-86
2023/09/27 18:43:32;;;;;;;4.85;3.67;;;;;;;;;;10597303;28;20039;-86
2023/09/27 18:48:35;;;;;;;5.30;4.22;;;;;;;;;;10591571;28;20080;-87
